Humidity-temperature Sensor

Selected Measurement Type: Relative Humidity

 
Relative Humidity [%]     6 entries per hour
Showing data from 6/18/2024 (15:00:00 Z) to 6/17/2024 (00:01:00 Z)
Previous Next [ Day | 3-Days | 7-Days ]
First Last
Prev [ Day | 3-Days | 7-Days ] Next
First Last

Start Time:     :
End Time:     :     
Time (in GMT) :00 :50 :40 :30 :20 :10
Previous Next [ Day | 3-Days | 7-Days ]
First Last
Prev [ Day | 3-Days | 7-Days ] Next
First Last


123 => good data
MM => data is determined as missing
-- => data not received/configured
Back to Top Back to Top
6/18/2024 15:00 to 14:10 93.70 93.20 92.96 93.78 93.36 95.09
6/18/2024 14:00 to 13:10 95.65 95.09 94.40 94.10 94.97 95.23
6/18/2024 13:00 to 12:10 95.49 95.65 95.81 95.83 96.09 96.40
6/18/2024 12:00 to 11:10 96.84 97.00 96.96 96.80 96.62 96.40
6/18/2024 11:00 to 10:10 96.39 96.19 95.93 95.67 95.85 95.51
6/18/2024 10:00 to 9:10 95.73 95.51 95.65 96.03 96.11 95.71
6/18/2024 09:00 to 8:10 95.33 95.31 95.55 95.25 94.81 94.83
6/18/2024 08:00 to 7:10 94.69 95.51 95.55 95.55 95.43 95.27
6/18/2024 07:00 to 6:10 95.01 94.53 94.49 94.22 94.93 96.17
6/18/2024 06:00 to 5:10 95.85 95.65 96.27 96.11 95.83 95.29
6/18/2024 05:00 to 4:10 95.13 95.33 95.69 95.49 95.53 95.51
6/18/2024 04:00 to 3:10 95.57 95.39 95.31 95.25 94.99 94.87
6/18/2024 03:00 to 2:10 94.79 95.11 94.91 94.81 94.61 94.44
6/18/2024 02:00 to 1:10 94.49 94.67 94.42 94.44 94.49 94.63
6/18/2024 01:00 to 0:10 94.26 93.84 93.82 93.76 93.68 93.66
6/18/2024 00:00 to 23:10 93.48 93.36 93.66 93.34 93.20 92.80
6/17/2024 23:00 to 22:10 92.74 92.74 93.34 93.38 93.14 93.66
6/17/2024 22:00 to 21:10 94.10 94.32 93.92 93.64 93.40 93.52
6/17/2024 21:00 to 20:10 94.36 94.28 94.26 93.90 93.64 93.54
6/17/2024 20:00 to 19:10 93.32 93.22 93.28 92.90 92.74 93.16
6/17/2024 19:00 to 18:10 93.42 93.54 92.70 92.56 92.82 93.08
6/17/2024 18:00 to 17:10 92.72 92.49 92.39 92.39 92.43 92.27
6/17/2024 17:00 to 16:10 91.83 90.89 91.09 90.97 90.40 89.30
6/17/2024 16:00 to 15:10 89.18 89.40 89.36 88.78 88.94 89.40
6/17/2024 15:00 to 14:10 88.98 87.75 88.33 89.36 89.58 90.65
6/17/2024 14:00 to 13:10 91.29 91.77 92.50 92.70 93.06 91.97
6/17/2024 13:00 to 12:10 91.35 92.78 92.90 92.58 92.49 92.56
6/17/2024 12:00 to 11:10 92.17 93.00 94.16 94.63 94.65 94.34
6/17/2024 11:00 to 10:10 94.57 94.49 94.51 94.42 94.59 94.49
6/17/2024 10:00 to 9:10 94.81 94.95 95.25 95.11 95.11 94.91
6/17/2024 09:00 to 8:10 94.61 94.65 94.12 93.58 93.04 92.88
6/17/2024 08:00 to 7:10 92.82 92.70 93.98 93.74 93.14 93.08
6/17/2024 07:00 to 6:10 94.67 94.63 94.06 93.34 93.00 92.80
6/17/2024 06:00 to 5:10 93.42 94.00 94.16 93.72 93.70 93.94
6/17/2024 05:00 to 4:10 93.54 93.90 93.88 93.66 92.96 92.31
6/17/2024 04:00 to 3:10 92.64 93.70 93.70 93.82 94.00 93.76
6/17/2024 03:00 to 2:10 93.48 93.60 93.94 93.62 93.00 93.22
6/17/2024 02:00 to 1:10 93.84 93.52 93.10 93.14 93.46 93.00
6/17/2024 01:00 to 0:10 92.62 93.10 92.50 91.67 91.63 91.97